Time;durP1;ratioP1;P1;durP2;ratioP2;P2;SDS_P1;SDS_P2;PMS_P1;PMS_P2;Temp;Humidity;BMP_temperature;BMP_pressure;BME280_temperature;BME280_humidity;BME280_pressure;Samples;Min_cycle;Max_cycle;Signal;HPM_P1;HPM_P2
2022/03/22 00:01:35;;;;;;;138.55;125.25;;;10.10;68.70;;;;;;4993952;28;20059;-73
2022/03/22 00:04:02;;;;;;;136.95;123.05;;;10.00;68.70;;;;;;4992385;28;20506;-73
2022/03/22 00:06:29;;;;;;;136.32;122.68;;;9.90;68.90;;;;;;4992830;28;20054;-73
2022/03/22 00:08:57;;;;;;;136.77;123.53;;;9.80;69.10;;;;;;4976077;28;20055;-73
2022/03/22 00:11:24;;;;;;;138.43;124.90;;;9.80;69.60;;;;;;4976416;28;20493;-73
2022/03/22 00:13:51;;;;;;;136.82;123.00;;;9.70;70.00;;;;;;4976080;28;20129;-73
2022/03/22 00:16:18;;;;;;;137.82;124.32;;;9.60;70.40;;;;;;4993478;28;20050;-73
2022/03/22 00:18:47;;;;;;;137.15;123.68;;;9.60;70.50;;;;;;4975966;28;20046;-73
2022/03/22 00:21:14;;;;;;;136.80;122.97;;;9.50;70.90;;;;;;4976032;28;20055;-73
2022/03/22 00:23:41;;;;;;;137.63;123.88;;;9.40;71.20;;;;;;4992904;28;20058;-73
2022/03/22 00:26:08;;;;;;;137.98;124.45;;;9.40;71.80;;;;;;4993606;28;20051;-73
2022/03/22 00:28:35;;;;;;;137.60;124.03;;;9.40;72.40;;;;;;4975944;28;20557;-73
2022/03/22 00:31:03;;;;;;;136.65;122.95;;;9.40;72.60;;;;;;4992985;28;20581;-73
2022/03/22 00:33:30;;;;;;;136.88;122.75;;;9.40;72.80;;;;;;4992928;28;20106;-73
2022/03/22 00:35:59;;;;;;;134.23;121.07;;;9.40;72.80;;;;;;4975921;28;20047;-73
2022/03/22 00:38:26;;;;;;;133.68;120.43;;;9.30;73.00;;;;;;4992053;28;20097;-73
2022/03/22 00:40:53;;;;;;;133.82;120.53;;;9.30;73.10;;;;;;4992303;28;20050;-73
2022/03/22 00:43:20;;;;;;;132.80;119.50;;;9.30;73.10;;;;;;4993156;28;20055;-73
2022/03/22 00:45:48;;;;;;;133.18;120.05;;;9.30;73.20;;;;;;4992004;28;20042;-73
2022/03/22 00:48:15;;;;;;;133.63;120.43;;;9.30;73.20;;;;;;4993005;28;20055;-73
2022/03/22 00:50:44;;;;;;;132.25;119.35;;;9.30;73.40;;;;;;4993470;28;20097;-73
2022/03/22 00:53:13;;;;;;;133.68;120.15;;;9.30;73.70;;;;;;4991943;28;20078;-73
2022/03/22 00:55:41;;;;;;;133.48;120.03;;;9.30;74.00;;;;;;4992782;28;20490;-73
2022/03/22 00:58:08;;;;;;;135.05;121.65;;;9.30;74.00;;;;;;4975218;28;20058;-73
2022/03/22 01:00:36;;;;;;;134.82;121.35;;;9.30;74.40;;;;;;4991291;28;20050;-73
2022/03/22 01:03:05;;;;;;;137.05;123.28;;;9.20;74.60;;;;;;4993248;28;20055;-73
2022/03/22 01:05:34;;;;;;;137.05;123.53;;;9.20;75.10;;;;;;4993034;28;20058;-73
2022/03/22 01:08:05;;;;;;;136.77;123.05;;;9.20;75.50;;;;;;4991393;28;20058;-73
2022/03/22 01:10:35;;;;;;;137.18;123.22;;;9.20;75.70;;;;;;4991802;28;20513;-73
2022/03/22 01:13:02;;;;;;;138.73;124.65;;;9.20;75.90;;;;;;4992105;28;20058;-73
2022/03/22 01:15:33;;;;;;;140.98;126.78;;;9.10;76.00;;;;;;4991563;28;20051;-72
2022/03/22 01:18:05;;;;;;;141.75;127.35;;;9.10;76.30;;;;;;4975243;28;20055;-73
2022/03/22 01:20:33;;;;;;;141.23;127.20;;;9.00;76.60;;;;;;4991781;28;20057;-73
2022/03/22 01:23:02;;;;;;;139.57;125.78;;;9.00;77.10;;;;;;4993217;28;20051;-73
2022/03/22 01:25:32;;;;;;;140.10;126.18;;;8.90;77.50;;;;;;4992720;28;20125;-73
2022/03/22 01:28:00;;;;;;;136.13;122.63;;;8.90;78.30;;;;;;4992724;28;20081;-73
2022/03/22 01:30:27;;;;;;;134.57;121.55;;;8.90;78.70;;;;;;4991410;28;20061;-73
2022/03/22 01:32:55;;;;;;;136.00;122.50;;;8.90;79.20;;;;;;4975165;28;20134;-73
2022/03/22 01:35:23;;;;;;;133.90;120.80;;;8.90;79.10;;;;;;4991249;28;20162;-73
2022/03/22 01:37:52;;;;;;;137.18;123.63;;;8.90;79.20;;;;;;4991095;28;20051;-73
2022/03/22 01:40:21;;;;;;;137.27;123.57;;;8.90;79.30;;;;;;4992655;28;20145;-73
2022/03/22 01:42:48;;;;;;;136.63;122.97;;;8.90;79.60;;;;;;4991229;28;20546;-73
2022/03/22 01:45:18;;;;;;;137.23;123.63;;;8.90;79.50;;;;;;4993419;28;20047;-73
2022/03/22 01:47:46;;;;;;;139.75;125.75;;;9.00;79.60;;;;;;4994051;28;20055;-73
2022/03/22 01:50:15;;;;;;;141.40;126.97;;;9.00;79.90;;;;;;4995940;28;20055;-73
2022/03/22 01:52:43;;;;;;;138.65;124.68;;;9.00;79.90;;;;;;4978542;28;20050;-73
2022/03/22 01:55:13;;;;;;;137.70;124.10;;;8.90;79.70;;;;;;4994574;28;20062;-73
2022/03/22 01:57:40;;;;;;;138.23;124.47;;;8.90;79.90;;;;;;4995740;28;20063;-73
2022/03/22 02:00:10;;;;;;;137.63;123.82;;;8.90;80.30;;;;;;4994573;28;20053;-73
2022/03/22 02:08:16;;;;;;;137.07;122.97;;;8.70;78.20;;;;;;4995732;28;19926;-72
2022/03/22 02:10:43;;;;;;;139.85;125.60;;;8.70;79.50;;;;;;4994335;28;20317;-73
2022/03/22 02:13:10;;;;;;;139.23;125.38;;;8.70;80.50;;;;;;4995898;28;20125;-72
2022/03/22 02:15:37;;;;;;;139.40;125.30;;;8.70;81.00;;;;;;4995424;28;20051;-72
2022/03/22 02:18:06;;;;;;;137.45;123.55;;;8.70;81.10;;;;;;4994109;28;20134;-73
2022/03/22 02:20:33;;;;;;;137.38;123.78;;;8.70;81.10;;;;;;4995416;28;20065;-73
2022/03/22 02:23:05;;;;;;;137.60;124.03;;;8.60;81.40;;;;;;4995445;28;20055;-73
2022/03/22 02:25:35;;;;;;;140.43;126.53;;;8.60;81.60;;;;;;4993521;28;20527;-73
2022/03/22 02:28:04;;;;;;;141.13;127.05;;;8.50;81.90;;;;;;4995021;28;20055;-72
2022/03/22 02:30:31;;;;;;;140.15;126.25;;;8.50;82.20;;;;;;4995190;28;20043;-72
2022/03/22 02:33:00;;;;;;;139.80;125.28;;;8.40;82.30;;;;;;5004510;28;20051;-73
2022/03/22 02:35:28;;;;;;;138.57;124.65;;;8.40;82.80;;;;;;4994832;28;20062;-73
2022/03/22 02:37:56;;;;;;;139.38;125.22;;;8.40;83.10;;;;;;4994754;28;20062;-72
2022/03/22 02:40:23;;;;;;;141.30;126.95;;;8.30;82.90;;;;;;4977783;28;20614;-73
2022/03/22 02:42:54;;;;;;;139.88;126.03;;;8.30;83.10;;;;;;4977561;28;20162;-73
2022/03/22 02:45:22;;;;;;;139.07;125.15;;;8.30;83.50;;;;;;4994811;28;20057;-72
2022/03/22 02:47:49;;;;;;;137.88;124.22;;;8.30;83.90;;;;;;4977300;28;20058;-72
2022/03/22 02:50:16;;;;;;;136.30;122.85;;;8.30;83.90;;;;;;4977490;28;20500;-73
2022/03/22 02:52:45;;;;;;;137.00;123.13;;;8.30;83.80;;;;;;4977657;28;20057;-72
2022/03/22 02:55:13;;;;;;;138.95;125.03;;;8.30;83.60;;;;;;4977956;28;20051;-72
2022/03/22 02:57:41;;;;;;;139.73;125.97;;;8.30;83.70;;;;;;4993448;28;20449;-72
2022/03/22 03:00:12;;;;;;;138.68;124.72;;;8.30;83.90;;;;;;4995001;28;20539;-73
2022/03/22 03:02:43;;;;;;;137.18;123.35;;;8.20;84.00;;;;;;4994904;28;20079;-73
2022/03/22 03:05:10;;;;;;;136.77;123.07;;;8.20;84.10;;;;;;4977259;28;20118;-73
2022/03/22 03:07:38;;;;;;;136.85;123.13;;;8.20;83.90;;;;;;4994729;28;20047;-73
2022/03/22 03:10:06;;;;;;;135.80;122.32;;;8.20;84.00;;;;;;4977308;28;20055;-72
2022/03/22 03:12:34;;;;;;;135.60;122.00;;;8.20;83.90;;;;;;4977571;28;20058;-72
2022/03/22 03:15:01;;;;;;;132.68;119.38;;;8.20;84.10;;;;;;4977314;28;20079;-73
2022/03/22 03:17:29;;;;;;;135.25;121.85;;;8.30;84.30;;;;;;4994191;28;20543;-72
2022/03/22 03:19:56;;;;;;;135.18;121.70;;;8.30;84.10;;;;;;4977136;28;20057;-73
2022/03/22 03:22:24;;;;;;;133.10;120.15;;;8.30;84.20;;;;;;4994552;28;20334;-73
2022/03/22 03:24:51;;;;;;;132.20;118.90;;;8.30;84.20;;;;;;4976680;28;20057;-73
2022/03/22 03:27:18;;;;;;;135.90;122.22;;;8.30;84.10;;;;;;4992946;28;20051;-73
2022/03/22 03:29:46;;;;;;;131.05;117.82;;;8.30;84.20;;;;;;4977115;28;20055;-73
2022/03/22 03:32:12;;;;;;;132.82;119.70;;;8.30;83.90;;;;;;4986713;28;20059;-72
2022/03/22 03:34:41;;;;;;;136.25;122.05;;;8.20;84.00;;;;;;4973835;28;20051;-72
2022/03/22 03:37:08;;;;;;;138.48;123.57;;;8.20;84.10;;;;;;4975050;28;20543;-73
2022/03/22 03:39:38;;;;;;;136.77;121.85;;;8.20;84.40;;;;;;4957548;28;20043;-72
2022/03/22 03:42:07;;;;;;;139.82;119.85;;;8.10;84.50;;;;;;4973806;28;20052;-72
2022/03/22 03:47:23;;;;;;;130.90;117.22;;;8.20;84.40;;;;;;4974667;28;20051;-72
2022/03/22 03:49:55;;;;;;;131.07;117.88;;;8.10;84.30;;;;;;4973493;28;20145;-73
2022/03/22 03:52:25;;;;;;;131.75;118.65;;;8.10;84.60;;;;;;4957259;28;20103;-73
2022/03/22 03:54:53;;;;;;;133.15;119.75;;;8.10;84.50;;;;;;4956763;28;20541;-72
2022/03/22 03:57:20;;;;;;;132.38;119.15;;;8.10;84.40;;;;;;4956746;28;20208;-73
2022/03/22 03:59:48;;;;;;;135.40;121.80;;;8.10;84.30;;;;;;4956851;28;20506;-73
2022/03/22 04:02:16;;;;;;;136.27;122.53;;;8.00;84.30;;;;;;4974322;28;20055;-73
2022/03/22 04:04:44;;;;;;;134.82;121.53;;;8.00;84.50;;;;;;4965171;28;20102;-72
2022/03/22 04:07:13;;;;;;;134.43;121.20;;;8.10;84.30;;;;;;4989630;28;20050;-72
2022/03/22 04:09:40;;;;;;;134.07;120.90;;;8.00;84.20;;;;;;4990793;28;20058;-73
2022/03/22 04:12:08;;;;;;;133.90;120.20;;;8.00;84.60;;;;;;4976265;28;20058;-73
2022/03/22 04:14:35;;;;;;;132.57;119.25;;;8.00;84.40;;;;;;4993902;28;20149;-72
2022/03/22 04:17:02;;;;;;;135.80;122.28;;;8.00;84.50;;;;;;4993414;28;20114;-72
2022/03/22 04:19:29;;;;;;;132.52;119.45;;;8.00;84.70;;;;;;4993726;28;20110;-72
2022/03/22 04:21:58;;;;;;;133.18;119.90;;;8.00;84.90;;;;;;4993603;28;20062;-73
2022/03/22 04:24:26;;;;;;;131.73;118.53;;;7.90;84.90;;;;;;4992086;28;20126;-72
2022/03/22 04:26:53;;;;;;;137.57;123.70;;;7.90;84.80;;;;;;4993847;28;20102;-73
2022/03/22 04:34:50;;;;;;;137.35;123.47;;;7.90;84.60;;;;;;4993554;28;20688;-72
2022/03/22 04:37:18;;;;;;;139.88;125.85;;;7.90;84.70;;;;;;4993303;28;20058;-72
2022/03/22 04:39:47;;;;;;;139.25;125.35;;;7.80;84.70;;;;;;4975811;28;20151;-72
2022/03/22 04:42:14;;;;;;;140.68;126.32;;;7.70;85.00;;;;;;4976199;28;20090;-72
2022/03/22 04:44:41;;;;;;;141.30;126.95;;;7.70;85.20;;;;;;4992992;28;20049;-72
2022/03/22 04:47:09;;;;;;;143.38;128.90;;;7.70;85.40;;;;;;4975491;28;20055;-72
2022/03/22 04:49:36;;;;;;;140.20;126.20;;;7.60;85.40;;;;;;4993384;28;20077;-72
2022/03/22 04:57:33;;;;;;;;;;;7.50;85.70;;;;;;4975872;28;20055;-72
2022/03/22 05:00:00;;;;;;;140.32;125.93;;;7.50;84.40;;;;;;4992337;28;20422;-72
2022/03/22 05:02:27;;;;;;;137.98;123.82;;;7.50;85.50;;;;;;4993410;28;20432;-72
2022/03/22 05:04:54;;;;;;;141.05;126.93;;;7.50;85.70;;;;;;4975647;28;20085;-72
2022/03/22 05:07:21;;;;;;;140.35;126.20;;;7.50;85.90;;;;;;4993145;28;20055;-72
2022/03/22 05:09:49;;;;;;;141.68;127.45;;;7.60;85.80;;;;;;4975622;28;20069;-72
2022/03/22 05:12:16;;;;;;;141.05;126.45;;;7.60;85.60;;;;;;4976044;28;20117;-72
2022/03/22 05:14:43;;;;;;;139.32;125.22;;;7.50;85.70;;;;;;4975451;28;20043;-72
2022/03/22 05:17:11;;;;;;;139.88;125.93;;;7.50;85.60;;;;;;4992796;28;20058;-73
2022/03/22 05:19:39;;;;;;;139.63;125.53;;;7.50;86.30;;;;;;4992918;28;20141;-72
2022/03/22 05:22:06;;;;;;;138.50;124.57;;;7.50;86.20;;;;;;4995054;28;20057;-73
2022/03/22 05:24:34;;;;;;;138.48;124.63;;;7.50;86.30;;;;;;4978225;28;20043;-72
2022/03/22 05:27:02;;;;;;;141.88;127.43;;;7.50;86.20;;;;;;4994710;28;20109;-73
2022/03/22 05:29:30;;;;;;;142.35;127.90;;;7.50;86.60;;;;;;4994781;28;20054;-72
2022/03/22 05:31:57;;;;;;;142.32;127.68;;;7.50;86.60;;;;;;4978555;28;20055;-73
2022/03/22 05:34:23;;;;;;;142.93;128.38;;;7.50;86.50;;;;;;4994494;28;20039;-72
2022/03/22 05:36:50;;;;;;;138.25;124.50;;;7.50;86.50;;;;;;4994385;28;20043;-72
2022/03/22 05:39:17;;;;;;;136.07;122.57;;;7.50;86.30;;;;;;4994583;28;20059;-72
2022/03/22 05:41:45;;;;;;;140.07;126.13;;;7.50;85.90;;;;;;4995984;28;20057;-72
2022/03/22 05:44:14;;;;;;;138.07;124.10;;;7.50;85.80;;;;;;4995869;28;20051;-72
2022/03/22 05:46:41;;;;;;;139.20;125.35;;;7.50;85.70;;;;;;4978084;28;20055;-72
2022/03/22 05:49:09;;;;;;;136.20;122.70;;;7.50;85.80;;;;;;4995577;28;20138;-72
2022/03/22 05:51:37;;;;;;;137.63;123.93;;;7.50;85.80;;;;;;4994358;28;20062;-72
2022/03/22 05:54:04;;;;;;;138.27;124.38;;;7.50;86.50;;;;;;4994697;28;20051;-72
2022/03/22 05:56:31;;;;;;;139.40;125.60;;;7.50;86.30;;;;;;4995716;28;20129;-72
2022/03/22 05:58:59;;;;;;;137.77;124.05;;;7.50;86.20;;;;;;4994262;28;20085;-72
2022/03/22 06:01:28;;;;;;;138.70;124.70;;;7.50;86.30;;;;;;4994237;28;20050;-72
2022/03/22 06:03:55;;;;;;;141.02;126.85;;;7.50;86.10;;;;;;4995661;28;20415;-72
2022/03/22 06:06:22;;;;;;;137.48;123.55;;;7.50;86.10;;;;;;4977641;28;20049;-72
2022/03/22 06:08:50;;;;;;;135.60;121.75;;;7.50;86.40;;;;;;4995663;28;20061;-72
2022/03/22 06:11:18;;;;;;;135.93;122.45;;;7.50;86.60;;;;;;4995544;28;20057;-72
2022/03/22 06:13:46;;;;;;;139.73;125.93;;;7.50;86.60;;;;;;4995383;28;20046;-72
2022/03/22 06:16:13;;;;;;;139.20;125.10;;;7.50;86.30;;;;;;4994328;28;20053;-73
2022/03/22 06:18:41;;;;;;;136.82;123.10;;;7.50;86.50;;;;;;4995127;28;20059;-72
2022/03/22 06:21:08;;;;;;;137.73;123.90;;;7.50;86.80;;;;;;4994240;28;20590;-72
2022/03/22 06:23:35;;;;;;;141.00;126.20;;;7.50;86.80;;;;;;4977442;28;20130;-72
2022/03/22 06:26:02;;;;;;;143.13;127.85;;;7.50;87.00;;;;;;4977971;28;20062;-72
2022/03/22 06:28:29;;;;;;;146.52;131.15;;;7.50;87.20;;;;;;4993631;28;20134;-72
2022/03/22 06:30:56;;;;;;;139.63;124.72;;;7.50;87.40;;;;;;4993770;28;20046;-72
2022/03/22 06:33:24;;;;;;;143.13;128.18;;;7.50;87.70;;;;;;5007615;28;20489;-72
2022/03/22 06:35:53;;;;;;;144.13;128.55;;;7.50;88.10;;;;;;4994822;28;20055;-72
2022/03/22 06:38:19;;;;;;;152.38;129.48;;;7.50;88.50;;;;;;4994954;28;20054;-72
2022/03/22 06:40:49;;;;;;;145.52;129.48;;;7.50;88.60;;;;;;4977006;28;20511;-72
2022/03/22 06:43:16;;;;;;;151.32;128.10;;;7.40;88.90;;;;;;4994327;28;20657;-72
2022/03/22 06:45:45;;;;;;;144.85;129.25;;;7.40;89.10;;;;;;4976708;28;20790;-73
2022/03/22 06:48:12;;;;;;;146.25;127.85;;;7.40;89.20;;;;;;4976465;28;20080;-73
2022/03/22 06:50:40;;;;;;;159.63;131.18;;;7.40;89.40;;;;;;4976872;28;20058;-73
2022/03/22 06:53:09;;;;;;;161.63;131.27;;;7.40;89.60;;;;;;4976969;28;20085;-74
2022/03/22 06:55:37;;;;;;;145.75;129.68;;;7.50;89.80;;;;;;4993383;28;20050;-73
2022/03/22 06:58:05;;;;;;;143.40;127.95;;;7.50;90.00;;;;;;4992757;28;20046;-73
2022/03/22 07:00:33;;;;;;;151.63;131.60;;;7.50;89.70;;;;;;4994396;28;20051;-73
2022/03/22 07:03:01;;;;;;;155.88;131.88;;;7.50;89.70;;;;;;4994504;28;20055;-73
2022/03/22 07:05:28;;;;;;;172.30;132.20;;;7.50;90.00;;;;;;4993204;28;20046;-73
2022/03/22 07:07:56;;;;;;;192.07;132.70;;;7.50;90.00;;;;;;4991485;28;20051;-73
2022/03/22 07:10:25;;;;;;;151.75;132.07;;;7.50;89.90;;;;;;4992963;28;20047;-73
2022/03/22 07:12:53;;;;;;;149.68;133.48;;;7.60;90.00;;;;;;4993960;28;20414;-73
2022/03/22 07:15:23;;;;;;;161.23;133.05;;;7.60;90.40;;;;;;4992528;28;20557;-73
2022/03/22 07:17:52;;;;;;;150.15;132.88;;;7.60;90.40;;;;;;4992922;28;20054;-73
2022/03/22 07:20:19;;;;;;;145.95;131.00;;;7.60;90.60;;;;;;4991546;28;20061;-73
2022/03/22 07:22:46;;;;;;;151.38;135.18;;;7.60;90.50;;;;;;4990202;28;20609;-73
2022/03/22 07:25:13;;;;;;;147.05;131.90;;;7.70;90.60;;;;;;4992462;28;20057;-73
2022/03/22 07:27:42;;;;;;;146.60;131.48;;;7.70;90.70;;;;;;4992441;28;20477;-73
2022/03/22 07:30:11;;;;;;;147.05;132.23;;;7.70;91.20;;;;;;4974806;28;20055;-75
2022/03/22 07:32:38;;;;;;;148.13;132.60;;;7.80;91.40;;;;;;4990432;28;20058;-73
2022/03/22 07:35:07;;;;;;;147.88;132.73;;;7.80;91.40;;;;;;4974445;28;20445;-72
2022/03/22 07:37:34;;;;;;;147.65;132.35;;;7.80;91.60;;;;;;4992532;28;20061;-73
2022/03/22 07:40:03;;;;;;;147.27;131.77;;;7.80;91.50;;;;;;4975551;28;20047;-73
2022/03/22 07:42:30;;;;;;;145.38;130.57;;;7.90;91.70;;;;;;4990864;28;20039;-73
2022/03/22 07:45:02;;;;;;;146.43;131.43;;;7.90;91.80;;;;;;4993582;28;20138;-73
2022/03/22 07:47:30;;;;;;;149.30;134.13;;;8.00;92.20;;;;;;4991967;28;20414;-73
2022/03/22 07:53:01;;;;;;;142.77;127.82;;;8.10;92.40;;;;;;4991209;28;20039;-72
2022/03/22 07:55:30;;;;;;;145.30;130.45;;;8.20;92.40;;;;;;4990394;28;20109;-73
2022/03/22 07:57:58;;;;;;;142.50;128.15;;;8.30;92.40;;;;;;4991651;28;20062;-73
2022/03/22 08:00:28;;;;;;;141.57;127.20;;;8.40;92.40;;;;;;4991418;28;20058;-73
2022/03/22 08:02:56;;;;;;;145.23;130.85;;;8.50;92.30;;;;;;4991949;28;20062;-73
2022/03/22 08:05:24;;;;;;;146.52;131.88;;;8.60;92.30;;;;;;4974686;28;20560;-72
2022/03/22 08:07:51;;;;;;;144.77;130.40;;;8.70;92.50;;;;;;4991046;28;20046;-73
2022/03/22 08:10:18;;;;;;;144.65;129.95;;;8.80;92.20;;;;;;4991666;28;20054;-73
2022/03/22 08:12:46;;;;;;;145.90;131.13;;;8.90;92.20;;;;;;4975210;28;20051;-73
2022/03/22 08:15:13;;;;;;;143.52;129.15;;;8.90;92.10;;;;;;4989434;28;20133;-73
2022/03/22 08:17:42;;;;;;;142.15;127.90;;;9.00;92.20;;;;;;4992328;28;20059;-74
2022/03/22 08:20:11;;;;;;;142.57;128.20;;;9.10;92.20;;;;;;4992566;28;20064;-73
2022/03/22 08:22:50;;;;;;;140.07;126.03;;;9.20;92.20;;;;;;4991425;28;20090;-73
2022/03/22 08:25:24;;;;;;;141.38;127.28;;;9.30;92.10;;;;;;4992315;28;20054;-73
2022/03/22 08:27:51;;;;;;;140.02;126.03;;;9.40;91.90;;;;;;4990981;28;20113;-74
2022/03/22 08:30:20;;;;;;;140.85;126.68;;;9.50;91.80;;;;;;4988062;28;20130;-74
2022/03/22 08:32:50;;;;;;;140.88;126.93;;;9.60;91.70;;;;;;4988237;28;20047;-75
2022/03/22 08:35:17;;;;;;;138.38;124.50;;;9.70;91.40;;;;;;4991666;28;20061;-73
2022/03/22 08:37:44;;;;;;;141.75;127.28;;;9.80;91.10;;;;;;4990933;28;20051;-73
2022/03/22 08:40:13;;;;;;;140.05;125.97;;;9.90;91.00;;;;;;4990561;28;20540;-73
2022/03/22 08:42:43;;;;;;;138.98;124.70;;;10.00;91.00;;;;;;4971867;28;20043;-74
2022/03/22 08:45:11;;;;;;;136.55;122.75;;;10.20;90.60;;;;;;4993053;28;20137;-74
2022/03/22 08:47:40;;;;;;;135.82;122.15;;;10.30;90.50;;;;;;4987700;28;20055;-75
2022/03/22 08:50:10;;;;;;;135.00;121.25;;;10.40;90.40;;;;;;4990746;28;20054;-74
2022/03/22 08:52:37;;;;;;;136.82;122.97;;;10.50;90.00;;;;;;4973806;28;20043;-74
2022/03/22 08:55:05;;;;;;;135.15;121.50;;;10.60;88.80;;;;;;4994057;28;20444;-73
2022/03/22 08:57:32;;;;;;;134.80;121.28;;;10.70;88.10;;;;;;4993116;28;20528;-74
2022/03/22 08:59:59;;;;;;;137.93;124.15;;;10.80;87.80;;;;;;4978551;28;20137;-74
2022/03/22 09:02:26;;;;;;;135.25;121.72;;;10.90;87.00;;;;;;4995692;28;20063;-74
2022/03/22 09:07:47;;;;;;;139.75;125.68;;;11.10;86.10;;;;;;4942172;28;20055;-74
2022/03/22 09:10:15;;;;;;;139.00;125.30;;;11.20;85.30;;;;;;4978466;28;20050;-74
2022/03/22 09:12:42;;;;;;;140.60;126.82;;;11.30;84.90;;;;;;4977847;28;20446;-74
2022/03/22 09:15:11;;;;;;;136.85;123.25;;;11.40;84.10;;;;;;4995045;28;20059;-74
2022/03/22 09:17:39;;;;;;;139.70;125.95;;;11.50;83.60;;;;;;4988675;28;20059;-73
2022/03/22 09:20:07;;;;;;;137.75;124.38;;;11.60;83.70;;;;;;4995018;28;20151;-74
2022/03/22 09:22:35;;;;;;;137.02;123.05;;;11.70;83.40;;;;;;4977587;28;20050;-75
2022/03/22 09:25:04;;;;;;;139.10;125.40;;;11.80;83.20;;;;;;4976288;28;20497;-75
2022/03/22 09:27:31;;;;;;;139.15;125.10;;;11.90;82.50;;;;;;4977089;28;20063;-75
2022/03/22 09:29:58;;;;;;;138.93;125.18;;;12.00;82.40;;;;;;4973067;28;20051;-75
2022/03/22 09:32:25;;;;;;;138.98;125.55;;;12.10;82.90;;;;;;4977661;28;20058;-75
2022/03/22 09:34:52;;;;;;;138.40;124.90;;;12.20;82.80;;;;;;4993385;28;20217;-74
2022/03/22 09:37:19;;;;;;;139.75;126.07;;;12.30;82.40;;;;;;4994033;28;20425;-74
2022/03/22 09:39:46;;;;;;;137.80;124.03;;;12.40;82.00;;;;;;4993996;28;20050;-74
2022/03/22 09:42:16;;;;;;;141.20;125.70;;;12.50;81.70;;;;;;4994652;28;20062;-74
2022/03/22 09:44:48;;;;;;;137.60;123.95;;;12.70;81.60;;;;;;4995178;28;20074;-76
2022/03/22 09:47:16;;;;;;;139.07;125.75;;;12.70;81.50;;;;;;4993930;28;20101;-75
2022/03/22 09:49:44;;;;;;;139.07;125.50;;;12.90;80.80;;;;;;4995443;28;20058;-74
2022/03/22 09:52:11;;;;;;;136.40;123.22;;;13.00;79.80;;;;;;4993332;28;20054;-77
2022/03/22 09:54:40;;;;;;;137.65;124.35;;;13.10;79.60;;;;;;4992748;28;20061;-77
2022/03/22 09:57:07;;;;;;;137.70;124.65;;;13.20;79.60;;;;;;4977577;28;20545;-76
2022/03/22 09:59:36;;;;;;;139.32;126.03;;;13.30;79.30;;;;;;4994845;28;20581;-76
2022/03/22 10:02:04;;;;;;;135.30;122.70;;;13.40;79.40;;;;;;4993279;28;20508;-76
2022/03/22 10:04:37;;;;;;;140.88;127.20;;;13.50;78.80;;;;;;4989498;28;20134;-76
2022/03/22 10:07:06;;;;;;;143.13;129.60;;;13.60;78.40;;;;;;4975931;28;20549;-76
2022/03/22 10:09:36;;;;;;;142.07;127.93;;;13.70;78.40;;;;;;4994821;28;20090;-77
2022/03/22 10:12:03;;;;;;;139.40;126.30;;;13.80;78.20;;;;;;4976978;28;20039;-77
2022/03/22 10:14:37;;;;;;;142.10;128.68;;;13.90;78.50;;;;;;4994891;28;20059;-76
2022/03/22 10:17:12;;;;;;;127.20;115.45;;;14.00;78.20;;;;;;4977775;28;20055;-75
2022/03/22 10:19:50;;;;;;;124.25;112.93;;;14.10;79.00;;;;;;4978078;28;20055;-74
2022/03/22 10:22:22;;;;;;;134.30;121.80;;;14.20;80.00;;;;;;4977988;28;20142;-74
2022/03/22 10:24:51;;;;;;;138.88;125.53;;;14.30;79.90;;;;;;4993795;28;20150;-74
2022/03/22 10:27:23;;;;;;;140.30;126.88;;;14.40;79.50;;;;;;4989805;28;20055;-74
2022/03/22 10:29:51;;;;;;;144.13;130.27;;;14.50;79.00;;;;;;4974699;28;20059;-75
2022/03/22 10:32:19;;;;;;;140.63;127.45;;;14.60;78.50;;;;;;4975745;28;20078;-75
2022/03/22 10:34:46;;;;;;;139.80;126.60;;;14.70;77.90;;;;;;4977113;28;20051;-75
2022/03/22 10:37:13;;;;;;;143.75;130.32;;;14.80;77.00;;;;;;4975897;28;20055;-75
2022/03/22 10:39:41;;;;;;;140.90;127.97;;;14.90;76.30;;;;;;4994964;28;20047;-75
2022/03/22 10:42:10;;;;;;;139.57;126.32;;;15.10;76.60;;;;;;4977721;28;20046;-75
2022/03/22 10:44:38;;;;;;;140.07;127.13;;;15.20;74.80;;;;;;4995233;28;20109;-75
2022/03/22 10:47:08;;;;;;;144.52;131.32;;;15.30;73.90;;;;;;4976776;28;20054;-75
2022/03/22 10:49:36;;;;;;;143.30;130.35;;;15.40;73.60;;;;;;4976974;28;20047;-75
2022/03/22 10:52:08;;;;;;;141.55;128.27;;;15.50;73.70;;;;;;4976830;28;20086;-75
2022/03/22 10:54:35;;;;;;;143.80;130.48;;;15.60;73.10;;;;;;4976608;28;20054;-75
2022/03/22 10:57:02;;;;;;;142.25;129.32;;;15.70;70.80;;;;;;4976274;28;20652;-75
2022/03/22 10:59:29;;;;;;;142.30;129.45;;;15.80;71.20;;;;;;4977005;28;20055;-75
2022/03/22 11:01:56;;;;;;;142.68;129.73;;;15.90;70.70;;;;;;4993686;28;20142;-75
2022/03/22 11:04:25;;;;;;;143.05;129.57;;;16.00;68.90;;;;;;4995207;28;20046;-75
2022/03/22 11:06:54;;;;;;;143.25;130.20;;;16.10;68.80;;;;;;4977106;28;20133;-75
2022/03/22 11:09:22;;;;;;;143.25;130.18;;;16.20;67.80;;;;;;4977237;28;20043;-75
2022/03/22 11:11:50;;;;;;;144.32;131.38;;;16.30;67.40;;;;;;4994601;28;20586;-75
2022/03/22 11:14:18;;;;;;;144.70;131.60;;;16.40;66.80;;;;;;4994619;28;20055;-75
2022/03/22 11:16:48;;;;;;;145.35;131.90;;;16.50;67.00;;;;;;4994301;28;20142;-75
2022/03/22 11:19:16;;;;;;;145.00;131.52;;;16.70;67.30;;;;;;4988651;28;20583;-73
2022/03/22 11:21:47;;;;;;;142.52;129.63;;;16.70;66.40;;;;;;4993423;28;20488;-75
2022/03/22 11:24:15;;;;;;;145.18;132.00;;;16.90;66.80;;;;;;4992503;28;20058;-75
2022/03/22 11:26:44;;;;;;;141.23;128.63;;;17.00;66.30;;;;;;4975643;28;20070;-75
2022/03/22 11:29:13;;;;;;;144.77;131.88;;;17.10;66.50;;;;;;4991849;28;20051;-74
2022/03/22 11:31:42;;;;;;;133.20;121.63;;;17.20;65.60;;;;;;4992572;28;20051;-74
2022/03/22 11:34:09;;;;;;;145.85;132.80;;;17.30;66.00;;;;;;4992637;28;20081;-74
2022/03/22 11:36:43;;;;;;;142.27;129.45;;;17.40;66.50;;;;;;4975924;28;20058;-75
2022/03/22 11:39:17;;;;;;;148.32;135.15;;;17.60;67.00;;;;;;4982584;28;20085;-75
2022/03/22 11:44:36;;;;;;;146.15;133.00;;;17.80;66.60;;;;;;4992894;28;20054;-73
2022/03/22 11:47:07;;;;;;;153.23;139.38;;;17.90;66.10;;;;;;4992243;28;20576;-74
2022/03/22 11:49:50;;;;;;;147.00;133.48;;;18.00;65.70;;;;;;4993449;28;20054;-75
2022/03/22 11:52:18;;;;;;;149.98;136.88;;;18.20;65.10;;;;;;4990988;28;20058;-76
2022/03/22 11:54:57;;;;;;;146.93;134.23;;;18.30;65.10;;;;;;4992307;28;20062;-75
2022/03/22 11:57:24;;;;;;;150.40;137.13;;;18.40;64.70;;;;;;4974628;28;20498;-75
2022/03/22 11:59:53;;;;;;;152.85;137.18;;;18.50;64.80;;;;;;4974668;28;20130;-75
2022/03/22 12:02:22;;;;;;;147.00;133.80;;;18.60;64.70;;;;;;4992084;28;20115;-76
2022/03/22 12:04:53;;;;;;;148.52;135.70;;;18.70;64.10;;;;;;4993090;28;20497;-74
2022/03/22 12:07:27;;;;;;;149.60;136.30;;;18.80;63.30;;;;;;4970489;28;20596;-74
2022/03/22 12:10:05;;;;;;;147.75;134.55;;;18.90;63.50;;;;;;4993118;28;20503;-74
2022/03/22 12:12:33;;;;;;;144.73;131.40;;;19.00;63.30;;;;;;4992824;28;20162;-76
2022/03/22 12:15:01;;;;;;;145.90;133.00;;;19.10;62.40;;;;;;4992547;28;20051;-76
2022/03/22 12:17:29;;;;;;;147.25;133.70;;;19.20;61.90;;;;;;4973373;28;20051;-76
2022/03/22 12:19:59;;;;;;;148.50;134.65;;;19.40;61.70;;;;;;4992457;28;20082;-76
2022/03/22 12:22:26;;;;;;;146.48;133.88;;;19.40;59.90;;;;;;4992182;28;20391;-76
2022/03/22 12:24:57;;;;;;;148.57;134.00;;;19.50;60.00;;;;;;4973247;28;20489;-76
2022/03/22 12:27:24;;;;;;;148.95;135.63;;;19.60;60.30;;;;;;4988223;28;20130;-76
2022/03/22 12:29:53;;;;;;;148.60;135.27;;;19.70;59.70;;;;;;4974499;28;20051;-76
2022/03/22 12:32:21;;;;;;;147.13;134.23;;;19.70;59.00;;;;;;4974564;28;20051;-76
2022/03/22 12:34:49;;;;;;;146.73;133.73;;;19.90;58.60;;;;;;4974282;28;20540;-75
2022/03/22 12:37:17;;;;;;;151.38;138.25;;;19.90;57.30;;;;;;4990565;28;20061;-75
2022/03/22 12:39:46;;;;;;;147.05;134.10;;;20.00;56.40;;;;;;4991328;28;20075;-75
2022/03/22 12:42:16;;;;;;;147.02;134.45;;;20.10;54.90;;;;;;4992111;28;20059;-75
2022/03/22 12:44:43;;;;;;;144.90;132.75;;;20.10;53.40;;;;;;4975176;28;20398;-75
2022/03/22 12:47:10;;;;;;;150.75;137.02;;;20.20;52.80;;;;;;4974060;28;20055;-76
2022/03/22 12:49:39;;;;;;;144.82;132.30;;;20.20;52.80;;;;;;4991262;28;20524;-76